Time;durP1;ratioP1;P1;durP2;ratioP2;P2;SDS_P1;SDS_P2;PMS_P1;PMS_P2;Temp;Humidity;BMP_temperature;BMP_pressure;BME280_temperature;BME280_humidity;BME280_pressure;Samples;Min_cycle;Max_cycle;Signal;HPM_P1;HPM_P2
2023/01/29 00:01:45;;;;;;;30.67;12.43;;;;;;;-2.95;100.00;102942.25;5016100;28;20029;-86
2023/01/29 00:04:11;;;;;;;32.43;12.70;;;;;;;-2.94;100.00;102942.19;5015352;28;20038;-85
2023/01/29 00:06:39;;;;;;;26.83;11.33;;;;;;;-2.89;100.00;102929.53;5015444;28;20087;-84
2023/01/29 00:09:13;;;;;;;26.83;11.60;;;;;;;-2.79;100.00;102923.75;4982855;28;20034;-85
2023/01/29 00:11:39;;;;;;;31.55;12.07;;;;;;;-2.72;100.00;102922.53;5015741;28;20044;-84
2023/01/29 00:14:05;;;;;;;28.57;11.80;;;;;;;-2.67;100.00;102921.34;5015330;28;20030;-85
2023/01/29 00:16:36;;;;;;;28.75;12.15;;;;;;;-2.61;100.00;102916.66;5034444;28;20083;-84
2023/01/29 00:19:01;;;;;;;31.77;13.02;;;;;;;-2.56;100.00;102914.63;5019940;28;20037;-85
2023/01/29 00:21:29;;;;;;;28.70;13.15;;;;;;;-2.52;100.00;102909.06;5002271;28;20045;-84
2023/01/29 00:23:58;;;;;;;25.58;11.27;;;;;;;-2.50;100.00;102914.31;5019160;28;20381;-84
2023/01/29 00:26:23;;;;;;;28.10;11.65;;;;;;;-2.49;100.00;102908.06;5036267;28;20152;-84
2023/01/29 00:28:51;;;;;;;26.42;11.65;;;;;;;-2.52;100.00;102900.25;5018572;28;20061;-84
2023/01/29 00:31:20;;;;;;;32.73;11.73;;;;;;;-2.52;100.00;102895.78;5019023;28;20394;-84
2023/01/29 00:33:46;;;;;;;31.30;12.65;;;;;;;-2.51;100.00;102897.50;5018404;28;20322;-84
2023/01/29 00:36:14;;;;;;;28.13;12.55;;;;;;;-2.52;100.00;102890.47;5036139;28;20108;-84
2023/01/29 00:38:42;;;;;;;26.52;11.73;;;;;;;-2.47;100.00;102896.41;5002286;28;20033;-84
2023/01/29 00:46:45;;;;;;;26.05;10.50;;;;;;;-2.42;100.00;102893.53;5007434;28;20255;-84
2023/01/29 00:49:11;;;;;;;28.65;11.55;;;;;;;-2.40;100.00;102880.16;5018409;28;20438;-84
2023/01/29 00:51:37;;;;;;;27.23;11.43;;;;;;;-2.43;100.00;102878.50;5036185;28;20072;-84
2023/01/29 00:54:05;;;;;;;30.20;11.90;;;;;;;-2.44;100.00;102865.28;5018690;28;20036;-84
2023/01/29 00:56:32;;;;;;;27.47;11.60;;;;;;;-2.50;100.00;102867.31;5018572;28;20040;-84
2023/01/29 00:58:58;;;;;;;25.92;11.73;;;;;;;-2.49;100.00;102869.03;5018291;28;20116;-84
2023/01/29 01:04:09;;;;;;;29.38;12.38;;;;;;;-2.53;100.00;102858.66;5036255;28;20133;-84
2023/01/29 01:06:39;;;;;;;31.40;11.68;;;;;;;-2.55;100.00;102857.88;5018082;28;20112;-84
2023/01/29 01:11:50;;;;;;;28.88;11.75;;;;;;;-2.54;100.00;102849.84;5036211;28;20032;-84
2023/01/29 01:14:17;;;;;;;28.80;12.63;;;;;;;-2.62;100.00;102867.97;5002364;28;20030;-84
2023/01/29 01:16:44;;;;;;;29.27;12.23;;;;;;;-2.68;100.00;102866.47;5001518;28;20280;-84
2023/01/29 01:19:13;;;;;;;30.85;12.45;;;;;;;-2.68;100.00;102878.91;5035294;28;20036;-85
2023/01/29 01:21:39;;;;;;;26.90;11.57;;;;;;;-2.68;100.00;102876.25;5035231;28;20056;-84
2023/01/29 01:24:05;;;;;;;32.20;12.90;;;;;;;-2.66;100.00;102874.38;5017921;28;20421;-84
2023/01/29 01:26:31;;;;;;;33.27;12.90;;;;;;;-2.63;100.00;102871.56;5001993;28;20075;-84
2023/01/29 01:28:57;;;;;;;30.55;12.02;;;;;;;-2.60;100.00;102862.56;5034470;28;20063;-84
2023/01/29 01:31:23;;;;;;;32.53;12.30;;;;;;;-2.56;100.00;102869.44;5017601;28;20060;-84
2023/01/29 01:33:53;;;;;;;30.50;12.07;;;;;;;-2.54;100.00;102873.75;5016575;28;20542;-84
2023/01/29 01:36:18;;;;;;;26.10;12.43;;;;;;;-2.53;100.00;102874.59;5018010;28;20350;-84
2023/01/29 01:38:44;;;;;;;28.85;12.75;;;;;;;-2.51;100.00;102870.94;5017714;28;20025;-84
2023/01/29 01:41:18;;;;;;;32.73;13.53;;;;;;;-2.55;100.00;102864.06;5017509;28;20393;-84
2023/01/29 01:43:49;;;;;;;32.35;13.68;;;;;;;-2.59;100.00;102878.44;5017375;28;20079;-84
2023/01/29 01:46:15;;;;;;;33.47;13.03;;;;;;;-2.64;100.00;102867.19;5016961;28;20032;-84
2023/01/29 01:48:41;;;;;;;35.22;14.35;;;;;;;-2.71;100.00;102866.63;5017577;28;20272;-83
2023/01/29 01:51:07;;;;;;;32.33;14.05;;;;;;;-2.77;100.00;102866.09;5001036;28;20034;-84
2023/01/29 01:53:43;;;;;;;34.30;13.50;;;;;;;-2.83;100.00;102868.13;5017118;28;20025;-84
2023/01/29 01:56:15;;;;;;;31.95;13.82;;;;;;;-2.86;100.00;102873.59;5017132;28;20029;-84
2023/01/29 01:58:45;;;;;;;32.50;14.48;;;;;;;-2.90;100.00;102874.69;5017471;28;20029;-84
2023/01/29 02:01:23;;;;;;;34.35;14.30;;;;;;;-2.93;100.00;102874.84;5016633;28;20130;-83
2023/01/29 02:10:08;;;;;;;30.63;13.57;;;;;;;-3.01;100.00;102880.53;5020310;28;20137;-83
2023/01/29 02:12:39;;;;;;;32.13;12.60;;;;;;;-3.05;100.00;102876.31;5016913;28;20080;-83
2023/01/29 02:15:05;;;;;;;34.75;14.52;;;;;;;-3.06;100.00;102873.75;5016462;28;20030;-83
2023/01/29 02:17:41;;;;;;;35.42;14.23;;;;;;;-3.07;100.00;102878.19;5016971;28;20026;-83
2023/01/29 02:20:26;;;;;;;34.63;15.20;;;;;;;-3.07;100.00;102880.84;5001139;28;20059;-84
2023/01/29 02:23:26;;;;;;;35.53;14.57;;;;;;;-3.05;100.00;102878.13;5034515;28;20033;-83
2023/01/29 02:26:45;;;;;;;36.72;14.30;;;;;;;-3.00;100.00;102897.34;5016919;28;20540;-84
2023/01/29 02:29:26;;;;;;;36.50;13.90;;;;;;;-2.95;100.00;102889.13;5016594;28;20013;-84
2023/01/29 02:32:10;;;;;;;42.53;15.80;;;;;;;-2.91;100.00;102883.63;5016656;28;20025;-84
2023/01/29 02:37:50;;;;;;;34.33;14.82;;;;;;;-2.83;100.00;102892.03;5034745;28;20071;-84
2023/01/29 02:40:33;;;;;;;34.28;14.88;;;;;;;-2.73;100.00;102891.56;5015993;28;20033;-84
2023/01/29 02:43:23;;;;;;;37.85;14.85;;;;;;;-2.67;100.00;102886.81;5017022;28;20030;-83
2023/01/29 02:46:14;;;;;;;34.28;13.50;;;;;;;-2.54;100.00;102871.09;5016164;28;20466;-84
2023/01/29 02:49:05;;;;;;;38.87;15.70;;;;;;;-2.50;100.00;102879.75;5016459;28;20381;-84
2023/01/29 02:51:40;;;;;;;38.42;16.27;;;;;;;-2.51;100.00;102870.94;5016136;28;20056;-83
2023/01/29 02:54:36;;;;;;;37.78;14.27;;;;;;;-2.45;100.00;102874.19;5016898;28;20039;-83
2023/01/29 02:57:13;;;;;;;37.63;14.75;;;;;;;-2.44;100.00;102870.59;5033860;28;20038;-84
2023/01/29 02:59:44;;;;;;;37.17;15.98;;;;;;;-2.40;100.00;102872.16;5016404;28;20079;-83
2023/01/29 03:02:20;;;;;;;34.80;14.13;;;;;;;-2.36;100.00;102871.91;5016511;28;20112;-83
2023/01/29 03:04:55;;;;;;;38.80;15.10;;;;;;;-2.31;100.00;102874.34;5016340;28;20021;-84
2023/01/29 03:07:46;;;;;;;37.90;15.60;;;;;;;-2.27;100.00;102881.22;5016281;28;20060;-83
2023/01/29 03:10:36;;;;;;;37.38;14.73;;;;;;;-2.22;100.00;102876.50;5016900;28;20030;-83
2023/01/29 03:13:22;;;;;;;32.00;13.95;;;;;;;-2.16;100.00;102875.31;5033703;28;20124;-84
2023/01/29 03:16:03;;;;;;;33.97;14.90;;;;;;;-2.16;100.00;102870.84;5016686;28;20409;-84
2023/01/29 03:18:42;;;;;;;33.33;13.57;;;;;;;-2.07;100.00;102871.31;5015645;28;20037;-83
2023/01/29 03:32:25;;;;;;;33.00;14.40;;;;;;;-1.89;100.00;102867.66;5034059;28;20032;-84
2023/01/29 03:34:56;;;;;;;35.63;13.88;;;;;;;-1.86;100.00;102855.97;5015625;28;20061;-84
2023/01/29 03:37:25;;;;;;;32.60;13.73;;;;;;;-1.85;100.00;102858.53;5015549;28;20029;-83
2023/01/29 03:39:51;;;;;;;33.40;14.10;;;;;;;-1.81;100.00;102859.25;5015704;28;20065;-84
2023/01/29 03:42:41;;;;;;;31.50;13.17;;;;;;;-1.78;100.00;102857.25;4983317;28;20481;-83
2023/01/29 03:45:28;;;;;;;33.30;13.75;;;;;;;-1.73;100.00;102858.81;5016203;28;20466;-84
2023/01/29 03:48:03;;;;;;;32.03;14.30;;;;;;;-1.73;100.00;102864.97;5033993;28;20033;-83
2023/01/29 03:50:39;;;;;;;41.58;15.93;;;;;;;-1.70;100.00;102856.81;5033383;28;20256;-83
2023/01/29 03:53:14;;;;;;;32.40;14.07;;;;;;;-1.67;100.00;102855.78;5019491;28;20032;-83
2023/01/29 03:56:01;;;;;;;34.50;13.82;;;;;;;-1.62;100.00;102848.44;5020278;28;20083;-83
2023/01/29 03:58:42;;;;;;;30.85;13.30;;;;;;;-1.60;100.00;102838.53;5019289;28;20034;-83
2023/01/29 04:01:19;;;;;;;35.77;14.17;;;;;;;-1.61;100.00;102836.81;5019498;28;20048;-83
2023/01/29 04:03:56;;;;;;;31.20;13.57;;;;;;;-1.60;100.00;102843.88;5037029;28;20725;-84
2023/01/29 04:06:26;;;;;;;33.10;13.85;;;;;;;-1.59;100.00;102850.91;5037037;28;20033;-83
2023/01/29 04:08:56;;;;;;;34.63;14.45;;;;;;;-1.57;100.00;102842.84;5019039;28;20031;-84
2023/01/29 04:11:23;;;;;;;37.75;14.93;;;;;;;-1.54;100.00;102832.84;5019495;28;20454;-83
2023/01/29 04:13:51;;;;;;;32.47;12.90;;;;;;;-1.47;100.00;102833.38;5036431;28;20424;-84
2023/01/29 04:16:21;;;;;;;31.27;13.57;;;;;;;-1.47;100.00;102822.72;5018980;28;20770;-83
2023/01/29 04:18:50;;;;;;;34.15;14.15;;;;;;;-1.44;100.00;102826.06;5019347;28;20026;-84
2023/01/29 04:21:16;;;;;;;32.40;13.75;;;;;;;-1.41;100.00;102825.88;5019273;28;20095;-84
2023/01/29 04:23:43;;;;;;;31.17;14.20;;;;;;;-1.38;100.00;102821.34;5018868;28;20022;-83
2023/01/29 04:26:27;;;;;;;33.15;13.90;;;;;;;-1.34;100.00;102823.75;5002805;28;20033;-84
2023/01/29 04:29:30;;;;;;;35.38;14.25;;;;;;;-1.34;100.00;102817.56;5019420;28;20037;-83
2023/01/29 04:32:14;;;;;;;33.35;14.45;;;;;;;-1.31;100.00;102834.22;5018642;28;20029;-83
2023/01/29 04:35:07;;;;;;;36.07;14.80;;;;;;;-1.27;100.00;102822.44;5018938;28;20057;-83
2023/01/29 04:37:48;;;;;;;33.00;13.68;;;;;;;-1.22;100.00;102829.31;5018638;28;20268;-83
2023/01/29 04:40:34;;;;;;;32.72;14.68;;;;;;;-1.22;100.00;102824.84;5019690;28;20124;-84
2023/01/29 04:43:27;;;;;;;37.20;15.07;;;;;;;-1.21;100.00;102821.22;5036113;28;20052;-84
2023/01/29 04:46:09;;;;;;;36.35;14.52;;;;;;;-1.18;100.00;102807.72;5036794;28;20047;-84
2023/01/29 04:49:04;;;;;;;36.47;15.30;;;;;;;-1.17;100.00;102804.09;5035894;28;20099;-84
2023/01/29 04:51:51;;;;;;;33.65;13.73;;;;;;;-1.13;100.00;102802.13;5018526;28;20272;-83
2023/01/29 04:54:19;;;;;;;37.58;15.30;;;;;;;-1.14;100.00;102792.41;5036337;28;20028;-84
2023/01/29 04:56:52;;;;;;;36.72;15.82;;;;;;;-1.15;100.00;102788.91;5036520;28;20036;-83
2023/01/29 04:59:29;;;;;;;33.63;14.57;;;;;;;-1.12;100.00;102778.06;5019233;28;20481;-83
2023/01/29 05:01:55;;;;;;;33.90;14.30;;;;;;;-1.08;100.00;102766.28;5018500;28;20030;-83
2023/01/29 05:04:23;;;;;;;37.72;15.68;;;;;;;-1.04;100.00;102774.09;5000888;28;20283;-83
2023/01/29 05:06:49;;;;;;;37.17;15.70;;;;;;;-1.07;100.00;102778.63;5018403;28;20128;-83
2023/01/29 05:09:16;;;;;;;39.03;16.33;;;;;;;-1.03;100.00;102771.31;5035610;28;20029;-83
2023/01/29 05:11:45;;;;;;;37.72;16.20;;;;;;;-1.01;100.00;102753.41;5036011;28;20400;-83
2023/01/29 05:14:14;;;;;;;37.47;15.27;;;;;;;-0.96;100.00;102753.13;5017603;28;20097;-84
2023/01/29 05:16:49;;;;;;;40.00;16.00;;;;;;;-0.99;100.00;102770.19;5018343;28;20308;-83
2023/01/29 05:19:15;;;;;;;38.30;16.48;;;;;;;-0.99;100.00;102772.84;5035596;28;20104;-83
2023/01/29 05:21:44;;;;;;;40.15;16.55;;;;;;;-0.98;100.00;102763.91;5017730;28;20029;-83
2023/01/29 05:24:19;;;;;;;38.35;16.35;;;;;;;-0.97;100.00;102775.44;5018295;28;20061;-83
2023/01/29 05:29:31;;;;;;;38.08;16.77;;;;;;;-0.91;100.00;102753.72;5036292;28;20257;-84
2023/01/29 05:31:56;;;;;;;37.83;16.33;;;;;;;-0.91;100.00;102751.91;5018206;28;20037;-84
2023/01/29 05:34:22;;;;;;;43.75;16.38;;;;;;;-0.92;100.00;102752.84;5000936;28;20822;-84
2023/01/29 05:36:49;;;;;;;37.58;15.98;;;;;;;-0.90;100.00;102747.44;5035347;28;20032;-84
2023/01/29 05:39:17;;;;;;;38.87;16.43;;;;;;;-0.88;100.00;102746.41;5017583;28;20120;-84
2023/01/29 05:41:43;;;;;;;41.47;16.33;;;;;;;-0.86;100.00;102754.28;5017775;28;20272;-84
2023/01/29 05:44:09;;;;;;;39.72;17.00;;;;;;;-0.84;100.00;102751.53;5017299;28;20088;-84
2023/01/29 05:46:35;;;;;;;36.77;16.40;;;;;;;-0.79;100.00;102760.13;5017578;28;20052;-84
2023/01/29 05:49:04;;;;;;;41.33;16.60;;;;;;;-0.81;100.00;102757.56;5017410;28;20059;-84
2023/01/29 05:51:33;;;;;;;37.45;16.45;;;;;;;-0.82;100.00;102755.84;5034862;28;20036;-84
2023/01/29 05:53:58;;;;;;;43.63;16.80;;;;;;;-0.78;100.00;102759.19;5017166;28;20033;-84
2023/01/29 05:56:24;;;;;;;41.90;17.33;;;;;;;-0.77;100.00;102758.22;5017627;28;20032;-83
2023/01/29 05:58:49;;;;;;;47.42;18.80;;;;;;;-0.76;100.00;102767.94;5017217;28;20029;-84
2023/01/29 06:01:20;;;;;;;36.30;16.00;;;;;;;-0.74;100.00;102764.22;5017139;28;20457;-84
2023/01/29 06:03:46;;;;;;;43.97;18.73;;;;;;;-0.74;100.00;102761.56;5034927;28;20554;-84
2023/01/29 06:06:12;;;;;;;43.50;17.95;;;;;;;-0.74;100.00;102766.91;5017404;28;20072;-83
2023/01/29 06:08:40;;;;;;;43.93;18.77;;;;;;;-0.68;100.00;102754.13;5035040;28;20473;-84
2023/01/29 06:11:08;;;;;;;41.67;18.52;;;;;;;-0.70;100.00;102762.22;5017219;28;20112;-84
2023/01/29 06:13:34;;;;;;;40.50;17.88;;;;;;;-0.67;100.00;102770.03;5000441;28;20033;-84
2023/01/29 06:15:59;;;;;;;45.55;18.88;;;;;;;-0.64;100.00;102775.16;5034073;28;20489;-84
2023/01/29 06:18:27;;;;;;;41.07;18.23;;;;;;;-0.63;100.00;102776.03;5016460;28;20041;-84
2023/01/29 06:20:52;;;;;;;40.30;17.80;;;;;;;-0.62;100.00;102786.59;5016720;28;20056;-84
2023/01/29 06:23:18;;;;;;;48.73;18.83;;;;;;;-0.60;100.00;102795.34;5017310;28;20067;-84
2023/01/29 06:25:43;;;;;;;43.53;18.40;;;;;;;-0.59;100.00;102790.88;5016556;28;20425;-84
2023/01/29 06:28:09;;;;;;;40.27;18.00;;;;;;;-0.57;100.00;102797.84;5016464;28;20049;-84
2023/01/29 06:30:35;;;;;;;41.75;18.08;;;;;;;-0.56;100.00;102796.00;5016773;28;20041;-84
2023/01/29 06:33:02;;;;;;;39.93;17.97;;;;;;;-0.56;100.00;102780.00;5016446;28;20033;-84
2023/01/29 06:35:28;;;;;;;43.47;18.27;;;;;;;-0.55;100.00;102760.41;5016260;28;20061;-84
2023/01/29 06:37:53;;;;;;;38.03;17.80;;;;;;;-0.55;100.00;102758.63;5016891;28;20052;-83
2023/01/29 06:40:19;;;;;;;44.93;19.70;;;;;;;-0.50;100.00;102738.78;4999806;28;20041;-84
2023/01/29 06:42:47;;;;;;;44.42;17.98;;;;;;;-0.53;100.00;102742.53;4983792;28;20417;-85
2023/01/29 06:45:13;;;;;;;44.57;16.87;;;;;;;-0.56;100.00;102729.34;5016280;28;20038;-85
2023/01/29 06:47:38;;;;;;;47.20;19.15;;;;;;;-0.55;100.00;102747.06;5033291;28;20121;-85
2023/01/29 06:50:04;;;;;;;43.40;18.10;;;;;;;-0.58;100.00;102748.13;5016242;28;20402;-84
2023/01/29 06:52:29;;;;;;;39.15;17.55;;;;;;;-0.55;100.00;102753.28;4999530;28;20030;-84
2023/01/29 06:54:56;;;;;;;37.37;17.00;;;;;;;-0.55;100.00;102747.06;5033759;28;20037;-84
2023/01/29 06:57:24;;;;;;;35.65;15.73;;;;;;;-0.49;99.79;102737.84;5016035;28;20030;-84
2023/01/29 06:59:49;;;;;;;42.97;19.13;;;;;;;-0.51;99.77;102729.09;5016001;28;20036;-83
2023/01/29 07:02:15;;;;;;;41.00;17.40;;;;;;;-0.55;100.00;102729.28;5034176;28;20462;-84
2023/01/29 07:04:43;;;;;;;41.00;17.17;;;;;;;-0.50;99.74;102734.31;4999665;28;20496;-85
2023/01/29 07:07:12;;;;;;;39.60;17.33;;;;;;;-0.54;100.00;102732.78;5016558;28;20033;-85
2023/01/29 07:09:42;;;;;;;40.65;18.05;;;;;;;-0.57;100.00;102736.50;4999849;28;20120;-85
2023/01/29 07:12:13;;;;;;;40.35;17.42;;;;;;;-0.56;100.00;102737.34;4999691;28;20099;-86
2023/01/29 07:14:41;;;;;;;40.10;17.90;;;;;;;-0.57;100.00;102739.16;5000552;28;20041;-84
2023/01/29 07:17:07;;;;;;;42.15;19.10;;;;;;;-0.52;100.00;102735.38;5015714;28;20079;-83
2023/01/29 07:19:32;;;;;;;39.77;18.73;;;;;;;-0.50;100.00;102741.44;4999541;28;20064;-84
2023/01/29 07:22:01;;;;;;;43.53;18.55;;;;;;;-0.49;100.00;102743.16;4999529;28;20469;-84
2023/01/29 07:24:32;;;;;;;39.87;17.50;;;;;;;-0.47;100.00;102743.91;4999907;28;20107;-85
2023/01/29 07:26:57;;;;;;;49.35;18.73;;;;;;;-0.47;100.00;102742.13;5002171;28;20044;-84
2023/01/29 07:29:23;;;;;;;45.00;19.00;;;;;;;-0.45;100.00;102748.22;5020574;28;20386;-83
2023/01/29 07:31:48;;;;;;;40.23;17.83;;;;;;;-0.45;100.00;102748.22;5037191;28;20029;-83
2023/01/29 07:34:16;;;;;;;43.15;19.70;;;;;;;-0.34;100.00;102746.69;5002519;28;20308;-83
2023/01/29 07:36:42;;;;;;;42.90;19.52;;;;;;;-0.30;99.91;102746.38;5003369;28;20033;-83
2023/01/29 07:39:10;;;;;;;36.53;15.93;;;;;;;-0.33;99.97;102737.72;5037378;28;20124;-83
2023/01/29 07:41:35;;;;;;;40.50;17.15;;;;;;;-0.38;99.87;102727.34;5003820;28;20025;-84
2023/01/29 07:44:01;;;;;;;42.30;18.73;;;;;;;-0.38;100.00;102722.88;5019840;28;20025;-84
2023/01/29 07:46:29;;;;;;;43.70;17.20;;;;;;;-0.38;100.00;102725.53;5019344;28;20032;-83
2023/01/29 07:48:57;;;;;;;42.33;17.27;;;;;;;-0.40;100.00;102730.13;5019150;28;20477;-84
2023/01/29 07:51:22;;;;;;;42.70;18.42;;;;;;;-0.37;100.00;102734.38;5019136;28;20049;-84
2023/01/29 07:53:48;;;;;;;43.67;18.43;;;;;;;-0.36;100.00;102739.63;5036795;28;20481;-84
2023/01/29 07:56:19;;;;;;;41.63;18.20;;;;;;;-0.35;100.00;102751.16;5002315;28;20041;-84
2023/01/29 07:58:47;;;;;;;40.97;18.42;;;;;;;-0.34;100.00;102744.00;5019247;28;20018;-84
2023/01/29 08:01:12;;;;;;;43.38;18.35;;;;;;;-0.31;100.00;102736.69;5019257;28;20030;-84
2023/01/29 08:03:38;;;;;;;43.80;17.97;;;;;;;-0.30;100.00;102727.72;5037134;28;20048;-85
2023/01/29 08:06:04;;;;;;;41.20;17.77;;;;;;;-0.27;100.00;102737.34;5003470;28;20276;-84
2023/01/29 08:08:30;;;;;;;38.78;17.50;;;;;;;-0.26;100.00;102733.72;5019559;28;20029;-85
2023/01/29 08:10:55;;;;;;;38.37;18.20;;;;;;;-0.23;99.55;102730.84;5018727;28;20035;-83
2023/01/29 08:13:21;;;;;;;41.85;18.48;;;;;;;-0.22;100.00;102733.41;5018633;28;20033;-83
2023/01/29 08:15:49;;;;;;;40.27;18.30;;;;;;;-0.20;99.88;102720.81;5002378;28;20038;-84
2023/01/29 08:18:14;;;;;;;42.83;18.95;;;;;;;-0.18;99.94;102723.41;5002431;28;20124;-84
2023/01/29 08:20:40;;;;;;;40.73;18.07;;;;;;;-0.13;99.71;102728.44;5018504;28;20029;-84
2023/01/29 08:23:15;;;;;;;41.50;18.90;;;;;;;-0.14;99.32;102727.59;5018568;28;20033;-84
2023/01/29 08:25:41;;;;;;;42.97;18.15;;;;;;;-0.17;99.55;102714.44;5018288;28;20021;-84
2023/01/29 08:28:07;;;;;;;42.08;17.55;;;;;;;-0.13;98.71;102723.09;5035940;28;20056;-84
2023/01/29 08:30:33;;;;;;;41.05;18.23;;;;;;;-0.16;99.55;102720.63;5036696;28;20159;-84
2023/01/29 08:32:59;;;;;;;39.17;17.03;;;;;;;-0.11;98.95;102713.19;5018532;28;20029;-83
2023/01/29 08:35:25;;;;;;;40.17;18.48;;;;;;;-0.10;98.49;102720.25;5036577;28;20061;-84
2023/01/29 08:37:54;;;;;;;38.75;17.38;;;;;;;-0.12;98.69;102714.16;5018273;28;20041;-83
2023/01/29 08:40:21;;;;;;;39.80;18.10;;;;;;;-0.12;99.30;102714.16;5018362;28;20488;-83
2023/01/29 08:42:52;;;;;;;38.58;17.60;;;;;;;-0.12;99.40;102709.66;5035771;28;20045;-84
2023/01/29 08:45:17;;;;;;;43.88;18.63;;;;;;;-0.10;99.18;102701.56;5002934;28;20038;-84
2023/01/29 08:47:47;;;;;;;41.77;17.67;;;;;;;-0.08;99.38;102699.66;5018268;28;20025;-83
2023/01/29 08:50:16;;;;;;;43.20;18.38;;;;;;;-0.06;98.91;102700.41;5018614;28;20039;-84
2023/01/29 08:52:42;;;;;;;40.95;18.02;;;;;;;-0.06;98.70;102695.94;5001785;28;20110;-83
2023/01/29 08:55:11;;;;;;;35.33;16.50;;;;;;;-0.02;98.46;102696.56;5018197;28;20393;-85
2023/01/29 08:57:38;;;;;;;38.43;17.77;;;;;;;-0.01;98.66;102687.63;5035638;28;20029;-84
2023/01/29 09:00:05;;;;;;;33.70;15.80;;;;;;;0.06;97.98;102699.63;5018114;28;20022;-84
2023/01/29 09:02:31;;;;;;;31.45;14.35;;;;;;;0.04;98.19;102698.00;5017889;28;20030;-84
2023/01/29 09:04:57;;;;;;;37.60;17.35;;;;;;;0.03;97.86;102699.81;5001382;28;20037;-84
2023/01/29 09:07:22;;;;;;;37.43;16.67;;;;;;;0.06;97.90;102691.59;5036166;28;20032;-83
2023/01/29 09:09:48;;;;;;;33.00;15.40;;;;;;;0.13;97.04;102694.72;5017939;28;20508;-84
2023/01/29 09:12:20;;;;;;;37.50;16.93;;;;;;;0.11;97.59;102700.16;5017529;28;20041;-83
2023/01/29 09:14:46;;;;;;;36.53;16.17;;;;;;;0.15;97.58;102698.16;5001648;28;20037;-83
2023/01/29 09:17:11;;;;;;;35.33;15.90;;;;;;;0.17;97.21;102694.41;5017722;28;20041;-83
2023/01/29 09:19:37;;;;;;;38.83;16.17;;;;;;;0.20;97.69;102688.00;5017984;28;20061;-84
2023/01/29 09:22:02;;;;;;;38.27;16.00;;;;;;;0.29;96.43;102684.72;5001388;28;20060;-84
2023/01/29 09:24:28;;;;;;;35.20;15.37;;;;;;;0.26;96.63;102678.75;5017673;28;20037;-83
2023/01/29 09:26:56;;;;;;;33.13;15.57;;;;;;;0.31;96.03;102681.94;5001127;28;20124;-84
2023/01/29 09:29:22;;;;;;;35.05;14.75;;;;;;;0.34;95.96;102684.44;5000930;28;20056;-83
2023/01/29 09:31:47;;;;;;;39.27;16.23;;;;;;;0.36;96.12;102685.19;5001237;28;20037;-84
2023/01/29 09:34:14;;;;;;;33.07;15.13;;;;;;;0.43;95.27;102685.59;5017421;28;20061;-84
2023/01/29 09:36:54;;;;;;;;;;;;;;;;;;;;;
2023/01/29 09:39:20;;;;;;;30.75;13.55;;;;;;;0.43;95.34;102682.94;5004991;28;20029;-84
2023/01/29 09:42:08;;;;;;;34.07;15.67;;;;;;;0.46;95.31;102691.59;5017274;28;20117;-84
2023/01/29 09:44:52;;;;;;;30.95;14.52;;;;;;;0.48;94.75;102679.00;5018035;28;20029;-84
2023/01/29 09:47:18;;;;;;;33.97;15.52;;;;;;;0.54;94.34;102671.53;5017076;28;20112;-84
2023/01/29 09:49:55;;;;;;;34.42;14.88;;;;;;;0.52;94.49;102666.31;5000333;28;20040;-84
2023/01/29 09:52:26;;;;;;;35.23;15.50;;;;;;;0.51;94.36;102673.44;5017143;28;20492;-83
2023/01/29 09:55:22;;;;;;;32.75;14.30;;;;;;;0.50;94.81;102674.41;5034734;28;20037;-83
2023/01/29 09:57:55;;;;;;;33.78;15.43;;;;;;;0.58;94.22;102673.88;5016782;28;20068;-84
2023/01/29 10:00:42;;;;;;;34.53;14.77;;;;;;;0.60;93.79;102673.78;5034915;28;20119;-84
2023/01/29 10:03:45;;;;;;;34.97;15.60;;;;;;;0.61;94.21;102670.16;5017303;28;20034;-84
2023/01/29 10:06:32;;;;;;;36.27;16.20;;;;;;;0.66;94.33;102670.69;5016798;28;20119;-84
2023/01/29 10:09:09;;;;;;;36.08;15.48;;;;;;;0.72;94.20;102677.44;5016436;28;20400;-82
2023/01/29 10:11:47;;;;;;;33.47;15.88;;;;;;;0.77;94.09;102677.94;5016982;28;20466;-84
2023/01/29 10:14:36;;;;;;;32.83;14.90;;;;;;;0.90;93.21;102689.53;5034997;28;20347;-87
2023/01/29 10:17:20;;;;;;;30.38;14.75;;;;;;;0.86;93.34;102688.03;5017423;28;20129;-83
2023/01/29 10:20:10;;;;;;;33.70;13.97;;;;;;;0.92;92.91;102676.06;5016959;28;20122;-83
2023/01/29 10:23:01;;;;;;;28.80;13.40;;;;;;;1.00;92.18;102681.72;5034196;28;20033;-83
2023/01/29 10:25:27;;;;;;;30.70;13.68;;;;;;;0.97;92.31;102677.41;5016248;28;20033;-83
2023/01/29 10:27:56;;;;;;;30.80;13.53;;;;;;;1.01;91.99;102670.91;5016496;28;20124;-83
2023/01/29 10:30:32;;;;;;;32.90;15.30;;;;;;;1.09;91.96;102678.38;5034363;28;20025;-83
2023/01/29 10:33:03;;;;;;;26.90;13.25;;;;;;;1.13;90.81;102677.19;5017159;28;20041;-83
2023/01/29 10:35:34;;;;;;;29.40;13.88;;;;;;;1.12;91.29;102682.66;5016112;28;20057;-83
2023/01/29 10:38:17;;;;;;;32.25;13.98;;;;;;;1.16;90.69;102673.47;5017082;28;20036;-83
2023/01/29 10:40:52;;;;;;;28.17;13.13;;;;;;;1.17;90.69;102670.69;5017208;28;20369;-83
2023/01/29 10:43:23;;;;;;;27.98;13.48;;;;;;;1.25;90.59;102664.78;5032384;28;20083;-83
2023/01/29 10:46:30;;;;;;;31.02;13.80;;;;;;;1.31;90.11;102663.50;5016039;28;20060;-84
2023/01/29 10:49:24;;;;;;;27.75;12.48;;;;;;;1.36;90.04;102658.69;5012019;28;20046;-83
2023/01/29 10:52:17;;;;;;;27.52;13.25;;;;;;;1.38;90.18;102662.09;5016515;28;20044;-83
2023/01/29 10:55:15;;;;;;;27.23;12.43;;;;;;;1.47;89.06;102655.22;5016148;28;20421;-83
2023/01/29 10:58:14;;;;;;;29.30;12.98;;;;;;;1.53;89.26;102654.78;5015795;28;20128;-83
2023/01/29 11:00:41;;;;;;;26.10;12.52;;;;;;;1.53;88.41;102657.44;5021394;28;20040;-84
2023/01/29 11:03:15;;;;;;;27.55;12.40;;;;;;;1.58;88.79;102649.97;5016000;28;20466;-83
2023/01/29 11:06:18;;;;;;;26.75;12.13;;;;;;;1.62;87.97;102648.75;5015872;28;20030;-83
2023/01/29 11:09:01;;;;;;;25.57;12.83;;;;;;;1.62;87.89;102642.53;5016099;28;20055;-83
2023/01/29 11:11:43;;;;;;;27.30;13.05;;;;;;;1.65;87.28;102628.94;5015950;28;20164;-83
2023/01/29 11:14:41;;;;;;;27.77;12.52;;;;;;;1.68;87.65;102618.88;5033281;28;20029;-83
2023/01/29 11:17:16;;;;;;;27.70;12.52;;;;;;;1.77;86.96;102619.16;5033244;28;20030;-83
2023/01/29 11:19:44;;;;;;;25.17;11.90;;;;;;;1.80;86.17;102609.09;5015706;28;20061;-85
2023/01/29 11:22:20;;;;;;;26.90;14.17;;;;;;;1.78;86.59;102604.81;5015455;28;20068;-83
2023/01/29 11:25:27;;;;;;;31.80;12.27;;;;;;;1.80;86.67;102602.84;5033270;28;20113;-84
2023/01/29 11:28:01;;;;;;;24.67;11.93;;;;;;;1.87;85.85;102588.06;5015993;28;20029;-85
2023/01/29 11:30:41;;;;;;;24.67;12.18;;;;;;;1.81;85.65;102578.66;5033305;28;20029;-84
2023/01/29 11:33:23;;;;;;;24.75;12.10;;;;;;;1.84;85.66;102567.72;5015816;28;20021;-84
2023/01/29 11:35:51;;;;;;;23.50;10.77;;;;;;;1.91;85.52;102568.97;5015461;28;20057;-83
2023/01/29 11:38:20;;;;;;;23.38;11.32;;;;;;;1.94;85.32;102559.84;4998908;28;20425;-83
2023/01/29 11:40:45;;;;;;;27.88;13.00;;;;;;;1.95;85.21;102561.56;5033024;28;20105;-84
2023/01/29 11:43:21;;;;;;;26.07;11.73;;;;;;;2.10;85.22;102564.91;4983129;28;20120;-83
2023/01/29 11:45:50;;;;;;;24.33;12.43;;;;;;;2.09;84.56;102557.81;5033718;28;20038;-83
2023/01/29 11:48:21;;;;;;;29.10;12.65;;;;;;;2.10;85.24;102554.19;5015047;28;20040;-83
2023/01/29 11:50:56;;;;;;;25.27;13.98;;;;;;;2.19;85.04;102534.72;5015697;28;20116;-84
2023/01/29 11:53:42;;;;;;;27.83;13.25;;;;;;;2.33;83.95;102543.50;5015927;28;20116;-84
2023/01/29 11:56:34;;;;;;;27.40;13.65;;;;;;;2.25;84.04;102530.72;5015518;28;20039;-83
2023/01/29 11:59:03;;;;;;;27.33;12.45;;;;;;;2.24;84.03;102510.25;5011773;28;20401;-84
2023/01/29 12:01:36;;;;;;;26.35;12.98;;;;;;;2.23;83.59;102506.72;5033036;28;20083;-84
2023/01/29 12:04:10;;;;;;;27.77;13.45;;;;;;;2.24;84.28;102497.72;5032869;28;20029;-83
2023/01/29 12:06:41;;;;;;;26.85;12.10;;;;;;;2.31;84.09;102491.91;5000434;28;20120;-84